createdAt,value
2023-05-21T00:00:53.844Z,12.09
2023-05-21T00:03:21.980Z,12.15
2023-05-21T00:05:50.157Z,12.17
2023-05-21T00:08:18.049Z,12.13
2023-05-21T00:10:45.706Z,12.12
2023-05-21T00:13:14.706Z,12.12
2023-05-21T00:15:42.407Z,12.15
2023-05-21T00:18:10.193Z,12.18
2023-05-21T00:20:38.319Z,12.15
2023-05-21T00:23:06.156Z,12.11
2023-05-21T00:25:33.910Z,12.13
2023-05-21T00:28:01.761Z,12.12
2023-05-21T00:30:30.808Z,12.16
2023-05-21T00:33:02.857Z,12.11
2023-05-21T00:35:31.239Z,12.08
2023-05-21T00:38:00.153Z,12.07
2023-05-21T00:40:27.792Z,12.03
2023-05-21T00:42:57.127Z,12.07
2023-05-21T00:45:25.506Z,12.00
2023-05-21T00:47:56.201Z,12.01
2023-05-21T00:50:24.381Z,12.02
2023-05-21T00:52:52.123Z,12.01
2023-05-21T00:55:19.842Z,12.06
2023-05-21T00:57:47.637Z,12.09
2023-05-21T01:00:16.364Z,12.13
2023-05-21T01:02:44.910Z,12.19
2023-05-21T01:05:15.538Z,12.21
2023-05-21T01:07:43.445Z,12.19
2023-05-21T01:10:12.450Z,12.19
2023-05-21T01:12:43.228Z,12.19
2023-05-21T01:15:12.021Z,12.12
2023-05-21T01:17:40.182Z,12.11
2023-05-21T01:20:11.163Z,12.10
2023-05-21T01:22:44.948Z,12.14
2023-05-21T01:25:15.056Z,12.11
2023-05-21T01:27:42.727Z,12.09
2023-05-21T01:30:11.474Z,12.06
2023-05-21T01:32:46.247Z,12.02
2023-05-21T01:35:18.772Z,11.99
2023-05-21T01:37:52.519Z,11.98
2023-05-21T01:40:26.934Z,11.97
2023-05-21T01:42:54.681Z,11.90
2023-05-21T01:45:24.951Z,11.88
2023-05-21T01:47:55.565Z,11.88
2023-05-21T01:50:24.734Z,11.86
2023-05-21T01:52:54.019Z,11.87
2023-05-21T01:55:24.674Z,11.84
2023-05-21T01:57:53.647Z,11.85
2023-05-21T02:00:22.313Z,11.87
2023-05-21T02:02:50.935Z,11.92
2023-05-21T02:05:18.889Z,11.90
2023-05-21T02:07:47.280Z,11.87
2023-05-21T02:10:15.771Z,11.89
2023-05-21T02:12:44.825Z,11.86
2023-05-21T02:15:14.279Z,11.87
2023-05-21T02:17:42.413Z,11.90
2023-05-21T02:20:12.117Z,11.93
2023-05-21T02:22:40.359Z,11.93
2023-05-21T02:25:09.928Z,11.95
2023-05-21T02:27:38.268Z,11.95
2023-05-21T02:30:09.402Z,11.94
2023-05-21T02:32:37.108Z,11.93
2023-05-21T02:35:05.835Z,11.95
2023-05-21T02:37:34.198Z,11.94
2023-05-21T02:40:03.620Z,11.98
2023-05-21T02:42:31.676Z,11.93
2023-05-21T02:44:59.280Z,11.94
2023-05-21T02:47:28.290Z,11.92
2023-05-21T02:49:55.979Z,11.87
2023-05-21T02:52:24.046Z,11.85
2023-05-21T02:54:52.627Z,11.84
2023-05-21T02:57:20.501Z,11.87
2023-05-21T02:59:48.196Z,11.85
2023-05-21T03:02:16.201Z,11.85
2023-05-21T03:04:46.914Z,11.86
2023-05-21T03:07:15.122Z,11.89
2023-05-21T03:09:43.076Z,11.86
2023-05-21T03:12:11.248Z,11.86
2023-05-21T03:14:39.229Z,11.86
2023-05-21T03:17:07.154Z,11.87
2023-05-21T03:19:35.980Z,11.87
2023-05-21T03:22:05.296Z,11.91
2023-05-21T03:24:33.368Z,11.90
2023-05-21T03:27:01.995Z,11.96
2023-05-21T03:29:29.855Z,11.93
2023-05-21T03:31:58.147Z,12.00
2023-05-21T03:34:25.917Z,12.02
2023-05-21T03:36:53.641Z,12.07
2023-05-21T03:39:22.637Z,12.08
2023-05-21T03:41:50.285Z,12.12
2023-05-21T03:44:18.021Z,12.15
2023-05-21T03:46:46.051Z,12.19
2023-05-21T03:49:15.252Z,12.24
2023-05-21T03:51:42.982Z,12.25
2023-05-21T03:54:10.768Z,12.25
2023-05-21T03:56:39.765Z,12.32
2023-05-21T03:59:07.394Z,12.42
2023-05-21T04:01:35.073Z,12.51
2023-05-21T04:04:03.150Z,12.48
2023-05-21T04:06:31.178Z,12.52
2023-05-21T04:08:58.823Z,12.51
2023-05-21T04:11:26.439Z,12.51
2023-05-21T04:13:55.743Z,12.51
2023-05-21T04:16:24.623Z,12.57
2023-05-21T04:18:55.330Z,12.72
2023-05-21T04:21:23.029Z,12.92
2023-05-21T04:23:50.644Z,13.37
2023-05-21T04:26:18.243Z,13.45
2023-05-21T04:28:45.938Z,13.86
2023-05-21T04:31:15.192Z,13.99
2023-05-21T04:33:45.830Z,13.84
2023-05-21T04:36:13.541Z,13.88
2023-05-21T04:38:41.942Z,13.75
2023-05-21T04:41:10.796Z,13.65
2023-05-21T04:43:38.424Z,14.35
2023-05-21T04:46:06.394Z,14.78
2023-05-21T04:48:35.502Z,15.05
2023-05-21T04:51:05.768Z,14.86
2023-05-21T04:53:33.976Z,14.54
2023-05-21T04:56:03.129Z,14.90
2023-05-21T04:58:32.900Z,15.69
2023-05-21T05:01:03.180Z,16.18
2023-05-21T05:03:31.432Z,16.59
2023-05-21T05:06:01.405Z,16.97
2023-05-21T05:08:29.086Z,17.49
2023-05-21T05:10:56.852Z,17.60
2023-05-21T05:13:24.709Z,16.89
2023-05-21T05:15:54.762Z,16.74
2023-05-21T05:18:22.597Z,17.41
2023-05-21T05:20:50.377Z,17.77
2023-05-21T05:23:19.356Z,18.17
2023-05-21T05:25:47.003Z,18.25
2023-05-21T05:28:14.607Z,18.68
2023-05-21T05:30:42.263Z,18.98
2023-05-21T05:33:09.921Z,19.07
2023-05-21T05:35:37.919Z,18.70
2023-05-21T05:38:05.884Z,17.61
2023-05-21T05:40:34.949Z,17.01
2023-05-21T05:43:02.569Z,16.82
2023-05-21T05:45:31.252Z,16.83
2023-05-21T05:47:59.497Z,16.65
2023-05-21T05:50:27.121Z,17.77
2023-05-21T05:52:54.787Z,18.39
2023-05-21T05:55:25.090Z,18.61
2023-05-21T05:57:54.237Z,19.23
2023-05-21T06:00:22.235Z,19.25
2023-05-21T06:02:50.018Z,19.23
2023-05-21T06:05:17.837Z,19.51
2023-05-21T06:07:45.627Z,18.93
2023-05-21T06:10:13.297Z,18.10
2023-05-21T06:12:40.961Z,17.55
2023-05-21T06:15:11.020Z,16.90
2023-05-21T06:17:38.712Z,16.65
2023-05-21T06:20:09.944Z,16.49
2023-05-21T06:22:38.048Z,16.65
2023-05-21T06:25:07.021Z,16.38
2023-05-21T06:27:34.681Z,16.40
2023-05-21T06:30:02.325Z,16.78
2023-05-21T06:32:31.470Z,17.09
2023-05-21T06:34:59.159Z,17.06
2023-05-21T06:37:26.934Z,17.07
2023-05-21T06:39:54.540Z,17.87
2023-05-21T06:42:22.168Z,18.34
2023-05-21T06:44:49.852Z,17.83
2023-05-21T06:47:17.645Z,17.73
2023-05-21T06:49:46.704Z,17.53
2023-05-21T06:52:14.509Z,17.78
2023-05-21T06:54:42.418Z,17.99
2023-05-21T06:57:10.269Z,18.00
2023-05-21T06:59:37.882Z,17.91
2023-05-21T07:02:05.828Z,18.01
2023-05-21T07:04:35.208Z,17.83
2023-05-21T07:07:04.846Z,17.92
2023-05-21T07:09:32.657Z,18.23
2023-05-21T07:12:01.172Z,18.55
2023-05-21T07:14:28.784Z,18.38
2023-05-21T07:16:56.510Z,18.59
2023-05-21T07:19:24.236Z,18.55
2023-05-21T07:21:51.973Z,18.50
2023-05-21T07:24:21.256Z,18.17
2023-05-21T07:26:49.036Z,18.24
2023-05-21T07:29:16.782Z,18.13
2023-05-21T07:31:44.513Z,17.77
2023-05-21T07:34:12.375Z,17.52
2023-05-21T07:36:40.024Z,17.39
2023-05-21T07:39:07.681Z,17.17
2023-05-21T07:41:36.679Z,17.23
2023-05-21T07:44:04.501Z,17.10
2023-05-21T07:46:32.180Z,17.17
2023-05-21T07:48:59.908Z,17.19
2023-05-21T07:51:28.177Z,17.28
2023-05-21T07:53:56.223Z,17.20
2023-05-21T07:56:23.895Z,17.28
2023-05-21T07:58:53.930Z,17.37
2023-05-21T08:01:22.432Z,17.42
2023-05-21T08:03:50.456Z,17.27
2023-05-21T08:06:18.626Z,17.46
2023-05-21T08:08:46.807Z,17.39
2023-05-21T08:11:14.596Z,17.32
2023-05-21T08:13:42.340Z,17.40
2023-05-21T08:16:11.429Z,17.63
2023-05-21T08:18:39.073Z,17.80
2023-05-21T08:21:07.159Z,17.86
2023-05-21T08:23:34.838Z,17.97
2023-05-21T08:26:02.535Z,17.91
2023-05-21T08:28:31.930Z,17.88
2023-05-21T08:30:59.526Z,18.06
2023-05-21T08:33:28.634Z,17.90
2023-05-21T08:35:56.286Z,18.11
2023-05-21T08:38:24.022Z,18.30
2023-05-21T08:40:54.473Z,18.20
2023-05-21T08:43:22.461Z,18.29
2023-05-21T08:45:56.468Z,18.14
2023-05-21T08:48:25.025Z,18.14
2023-05-21T08:50:55.746Z,18.23
2023-05-21T08:53:28.625Z,18.13
2023-05-21T08:55:57.659Z,18.27
2023-05-21T08:58:25.531Z,18.31
2023-05-21T09:00:53.260Z,18.35
2023-05-21T09:03:22.541Z,18.41
2023-05-21T09:05:51.138Z,18.51
2023-05-21T09:08:24.058Z,18.23
2023-05-21T09:10:53.927Z,18.08
2023-05-21T09:13:22.396Z,18.21
2023-05-21T09:15:51.399Z,18.30
2023-05-21T09:18:19.293Z,18.62
2023-05-21T09:20:46.924Z,18.76
2023-05-21T09:23:20.145Z,19.25
2023-05-21T09:25:49.246Z,19.33
2023-05-21T09:28:18.288Z,18.93
2023-05-21T09:30:47.718Z,19.52
2023-05-21T09:33:26.135Z,19.37
2023-05-21T09:35:54.065Z,19.58
2023-05-21T09:38:24.635Z,19.36
2023-05-21T09:40:52.302Z,19.60
2023-05-21T09:43:22.559Z,19.63
2023-05-21T09:45:54.017Z,19.68
2023-05-21T09:48:36.748Z,19.77
2023-05-21T09:51:12.677Z,19.65
2023-05-21T09:53:51.873Z,19.35
2023-05-21T09:56:24.760Z,19.40
2023-05-21T09:58:54.751Z,19.52
2023-05-21T10:01:22.540Z,19.54
2023-05-21T10:03:56.136Z,19.68
2023-05-21T10:06:27.269Z,19.65
2023-05-21T10:08:57.763Z,19.78
2023-05-21T10:11:28.303Z,19.73
2023-05-21T10:13:59.267Z,19.67
2023-05-21T10:16:26.907Z,19.60
2023-05-21T10:18:57.586Z,19.72
2023-05-21T10:21:26.132Z,19.64
2023-05-21T10:23:57.199Z,19.55
2023-05-21T10:26:25.531Z,19.49
2023-05-21T10:28:53.332Z,19.62
2023-05-21T10:31:21.126Z,19.89
2023-05-21T10:33:49.918Z,19.95
2023-05-21T10:36:18.363Z,19.92
2023-05-21T10:38:46.537Z,19.99
2023-05-21T10:41:17.181Z,20.18
2023-05-21T10:44:02.561Z,20.12
2023-05-21T10:46:59.840Z,20.28
2023-05-21T10:49:42.965Z,20.20
2023-05-21T10:52:24.525Z,20.36
2023-05-21T10:55:08.705Z,20.22
2023-05-21T10:57:54.979Z,20.48
2023-05-21T11:00:23.092Z,20.55
2023-05-21T11:02:52.076Z,20.51
2023-05-21T11:05:39.476Z,20.43
2023-05-21T11:08:19.448Z,20.62
2023-05-21T11:10:52.860Z,20.83
2023-05-21T11:13:22.668Z,21.03
2023-05-21T11:16:14.715Z,21.05
2023-05-21T11:19:01.565Z,21.10
2023-05-21T11:21:35.128Z,20.99
2023-05-21T11:24:08.333Z,21.04
2023-05-21T11:27:04.353Z,21.23
2023-05-21T11:29:44.641Z,21.33
2023-05-21T11:32:15.167Z,21.43
2023-05-21T11:34:49.570Z,21.57
2023-05-21T11:37:27.568Z,21.83
2023-05-21T11:39:55.833Z,21.84
2023-05-21T11:42:34.296Z,21.45
2023-05-21T11:45:04.650Z,21.50
2023-05-21T11:47:33.278Z,21.59
2023-05-21T11:50:02.473Z,21.30
2023-05-21T11:52:31.710Z,21.21
2023-05-21T11:54:59.931Z,21.33
2023-05-21T11:57:30.804Z,21.19
2023-05-21T12:00:00.250Z,21.09
2023-05-21T12:02:33.408Z,21.37
2023-05-21T12:05:01.149Z,21.39
2023-05-21T12:07:31.392Z,21.40
2023-05-21T12:09:59.984Z,21.34
2023-05-21T12:12:35.582Z,21.81
2023-05-21T12:15:12.443Z,21.61
2023-05-21T12:17:42.127Z,21.89
2023-05-21T12:20:10.856Z,22.08
2023-05-21T12:22:43.293Z,22.05
2023-05-21T12:25:12.004Z,22.17
2023-05-21T12:27:42.007Z,21.90
2023-05-21T12:30:10.922Z,22.09
2023-05-21T12:32:44.770Z,22.17
2023-05-21T12:35:22.520Z,22.05
2023-05-21T12:37:51.555Z,22.17
2023-05-21T12:40:20.681Z,22.11
2023-05-21T12:42:48.442Z,21.80
2023-05-21T12:45:18.342Z,21.75
2023-05-21T12:47:55.842Z,22.19
2023-05-21T12:50:23.943Z,22.18
2023-05-21T12:52:55.438Z,21.94
2023-05-21T12:55:24.205Z,21.91
2023-05-21T12:57:52.268Z,21.93
2023-05-21T13:00:25.297Z,21.95
2023-05-21T13:02:55.795Z,21.67
2023-05-21T13:05:23.478Z,21.80
2023-05-21T13:07:51.640Z,21.69
2023-05-21T13:10:19.762Z,21.67
2023-05-21T13:12:47.560Z,21.59
2023-05-21T13:15:15.718Z,21.67
2023-05-21T13:17:43.471Z,21.74
2023-05-21T13:20:13.657Z,21.68
2023-05-21T13:22:43.337Z,21.44
2023-05-21T13:25:12.233Z,21.44
2023-05-21T13:27:40.472Z,21.30
2023-05-21T13:30:09.535Z,21.33
2023-05-21T13:32:37.480Z,21.52
2023-05-21T13:35:05.921Z,21.43
2023-05-21T13:37:36.765Z,21.31
2023-05-21T13:40:05.794Z,21.33
2023-05-21T13:42:33.714Z,21.46
2023-05-21T13:45:01.422Z,21.27
2023-05-21T13:47:29.104Z,21.36
2023-05-21T13:49:56.794Z,21.49
2023-05-21T13:52:24.465Z,21.57
2023-05-21T13:54:53.461Z,21.53
2023-05-21T13:57:21.543Z,21.47
2023-05-21T13:59:50.582Z,21.30
2023-05-21T14:02:18.305Z,21.31
2023-05-21T14:04:46.009Z,21.32
2023-05-21T14:07:13.698Z,21.32
2023-05-21T14:09:42.207Z,21.22
2023-05-21T14:12:11.824Z,21.23
2023-05-21T14:14:39.449Z,21.25
2023-05-21T14:17:07.066Z,21.31
2023-05-21T14:19:34.801Z,21.33
2023-05-21T14:22:02.485Z,21.33
2023-05-21T14:24:30.135Z,21.24
2023-05-21T14:26:57.821Z,21.45
2023-05-21T14:29:26.795Z,21.62
2023-05-21T14:31:54.543Z,21.63
2023-05-21T14:34:22.180Z,21.77
2023-05-21T14:36:49.842Z,21.70
2023-05-21T14:39:17.718Z,21.85
2023-05-21T14:41:45.342Z,21.89
2023-05-21T14:44:12.968Z,22.02
2023-05-21T14:46:42.276Z,21.92
2023-05-21T14:49:11.829Z,22.00
2023-05-21T14:51:39.452Z,22.12
2023-05-21T14:54:07.109Z,22.05
2023-05-21T14:56:34.788Z,21.86
2023-05-21T14:59:02.364Z,22.04
2023-05-21T15:01:30.115Z,22.03
2023-05-21T15:03:59.681Z,21.88
2023-05-21T15:06:27.902Z,21.74
2023-05-21T15:08:55.656Z,21.73
2023-05-21T15:11:23.753Z,21.70
2023-05-21T15:13:51.314Z,21.62
2023-05-21T15:16:19.857Z,21.56
2023-05-21T15:18:47.756Z,21.63
2023-05-21T15:21:16.783Z,21.68
2023-05-21T15:23:44.392Z,21.60
2023-05-21T15:26:12.093Z,21.54
2023-05-21T15:28:39.689Z,21.49
2023-05-21T15:31:07.346Z,21.60
2023-05-21T15:33:34.958Z,21.50
2023-05-21T15:36:02.622Z,21.57
2023-05-21T15:38:32.678Z,21.50
2023-05-21T15:41:00.282Z,21.35
2023-05-21T15:43:27.904Z,21.46
2023-05-21T15:45:55.570Z,21.54
2023-05-21T15:48:23.309Z,21.75
2023-05-21T15:50:50.955Z,21.49
2023-05-21T15:53:18.617Z,21.79
2023-05-21T15:55:47.614Z,21.92
2023-05-21T15:58:15.276Z,21.88
2023-05-21T16:00:43.006Z,21.87
2023-05-21T16:03:11.898Z,21.65
2023-05-21T16:05:39.638Z,21.90
2023-05-21T16:08:07.310Z,21.66
2023-05-21T16:10:34.950Z,21.66
2023-05-21T16:13:04.046Z,21.60
2023-05-21T16:15:32.382Z,21.55
2023-05-21T16:18:00.173Z,21.48
2023-05-21T16:20:27.905Z,21.41
2023-05-21T16:22:55.520Z,21.34
2023-05-21T16:25:23.193Z,21.23
2023-05-21T16:27:50.878Z,21.04
2023-05-21T16:30:19.917Z,20.95
2023-05-21T16:32:47.546Z,20.94
2023-05-21T16:35:15.241Z,20.88
2023-05-21T16:37:42.872Z,20.97
2023-05-21T16:40:11.630Z,20.85
2023-05-21T16:42:39.758Z,20.87
2023-05-21T16:45:08.360Z,20.87
2023-05-21T16:47:37.410Z,20.65
2023-05-21T16:50:05.620Z,20.69
2023-05-21T16:52:33.594Z,20.72
2023-05-21T16:55:01.240Z,20.64
2023-05-21T16:57:28.996Z,20.61
2023-05-21T16:59:56.675Z,20.69
2023-05-21T17:02:24.845Z,20.70
2023-05-21T17:04:53.897Z,20.66
2023-05-21T17:07:21.553Z,20.57
2023-05-21T17:09:49.213Z,20.51
2023-05-21T17:12:16.922Z,20.42
2023-05-21T17:14:44.642Z,20.49
2023-05-21T17:17:12.236Z,20.32
2023-05-21T17:19:39.838Z,20.38
2023-05-21T17:22:08.805Z,20.34
2023-05-21T17:24:36.403Z,20.40
2023-05-21T17:27:04.117Z,20.42
2023-05-21T17:29:31.888Z,20.41
2023-05-21T17:32:00.111Z,20.47
2023-05-21T17:34:29.451Z,20.34
2023-05-21T17:36:58.105Z,20.30
2023-05-21T17:39:27.288Z,20.24
2023-05-21T17:41:56.948Z,20.16
2023-05-21T17:44:24.641Z,20.09
2023-05-21T17:46:52.835Z,20.11
2023-05-21T17:49:20.621Z,20.06
2023-05-21T17:51:48.717Z,20.04
2023-05-21T17:54:16.354Z,19.95
2023-05-21T17:56:46.563Z,19.98
2023-05-21T17:59:15.845Z,19.78
2023-05-21T18:01:43.513Z,19.70
2023-05-21T18:04:12.324Z,19.62
2023-05-21T18:06:40.469Z,19.40
2023-05-21T18:09:10.363Z,19.45
2023-05-21T18:11:38.207Z,19.41
2023-05-21T18:14:07.230Z,19.29
2023-05-21T18:16:34.905Z,19.23
2023-05-21T18:19:05.669Z,19.12
2023-05-21T18:21:34.566Z,19.02
2023-05-21T18:24:02.456Z,19.01
2023-05-21T18:26:30.708Z,18.88
2023-05-21T18:28:58.308Z,18.77
2023-05-21T18:31:27.526Z,18.68
2023-05-21T18:33:55.386Z,18.63
2023-05-21T18:36:23.904Z,18.61
2023-05-21T18:38:52.239Z,18.52
2023-05-21T18:41:20.010Z,18.37
2023-05-21T18:43:47.688Z,18.33
2023-05-21T18:46:15.373Z,18.28
2023-05-21T18:48:44.354Z,18.23
2023-05-21T18:51:11.999Z,18.20
2023-05-21T18:53:40.334Z,18.08
2023-05-21T18:56:10.150Z,18.05
2023-05-21T18:58:38.347Z,17.94
2023-05-21T19:01:07.671Z,17.89
2023-05-21T19:03:35.432Z,17.83
2023-05-21T19:06:04.689Z,17.81
2023-05-21T19:08:32.259Z,17.77
2023-05-21T19:11:00.297Z,17.70
2023-05-21T19:13:27.925Z,17.62
2023-05-21T19:15:57.339Z,17.53
2023-05-21T19:18:30.075Z,17.53
2023-05-21T19:20:57.780Z,17.50
2023-05-21T19:23:26.739Z,17.46
2023-05-21T19:25:54.328Z,17.35
2023-05-21T19:28:22.142Z,17.28
2023-05-21T19:30:49.925Z,17.23
2023-05-21T19:33:17.567Z,17.14
2023-05-21T19:35:45.323Z,17.13
2023-05-21T19:38:13.314Z,17.14
2023-05-21T19:40:42.322Z,17.04
2023-05-21T19:43:10.002Z,17.00
2023-05-21T19:45:37.668Z,16.98
2023-05-21T19:48:05.955Z,16.95
2023-05-21T19:50:33.722Z,16.89
2023-05-21T19:53:01.347Z,16.85
2023-05-21T19:55:31.270Z,16.81
2023-05-21T19:58:00.205Z,16.79
2023-05-21T20:00:28.628Z,16.78
2023-05-21T20:02:56.762Z,16.77
2023-05-21T20:05:24.658Z,16.68
2023-05-21T20:07:52.268Z,16.67
2023-05-21T20:10:19.878Z,16.63
2023-05-21T20:12:47.609Z,16.59
2023-05-21T20:15:18.171Z,16.56
2023-05-21T20:17:46.182Z,16.52
2023-05-21T20:20:13.986Z,16.52
2023-05-21T20:22:41.698Z,16.38
2023-05-21T20:25:10.422Z,16.33
2023-05-21T20:27:39.502Z,16.32
2023-05-21T20:30:09.209Z,16.30
2023-05-21T20:32:38.258Z,16.31
2023-05-21T20:35:08.965Z,16.26
2023-05-21T20:37:36.808Z,16.24
2023-05-21T20:40:07.049Z,16.28
2023-05-21T20:42:35.244Z,16.20
2023-05-21T20:45:03.825Z,16.17
2023-05-21T20:47:31.496Z,16.13
2023-05-21T20:50:02.941Z,16.10
2023-05-21T20:52:30.744Z,16.09
2023-05-21T20:54:59.628Z,16.01
2023-05-21T20:57:28.136Z,15.99
2023-05-21T20:59:56.195Z,15.95
2023-05-21T21:02:24.421Z,15.96
2023-05-21T21:04:53.808Z,15.90
2023-05-21T21:07:23.383Z,15.89
2023-05-21T21:09:51.145Z,15.88
2023-05-21T21:12:25.242Z,15.79
2023-05-21T21:14:54.173Z,15.78
2023-05-21T21:17:22.462Z,15.79
2023-05-21T21:19:50.314Z,15.72
2023-05-21T21:22:18.574Z,15.72
2023-05-21T21:24:48.097Z,15.67
2023-05-21T21:27:15.888Z,15.66
2023-05-21T21:29:44.136Z,15.64
2023-05-21T21:32:11.782Z,15.65
2023-05-21T21:34:39.499Z,15.59
2023-05-21T21:37:07.171Z,15.55
2023-05-21T21:39:34.961Z,15.55
2023-05-21T21:42:04.084Z,15.52
2023-05-21T21:44:31.667Z,15.48
2023-05-21T21:46:59.311Z,15.44
2023-05-21T21:49:26.970Z,15.47
2023-05-21T21:51:57.906Z,15.43
2023-05-21T21:54:25.695Z,15.45
2023-05-21T21:56:53.281Z,15.40
2023-05-21T21:59:22.511Z,15.41
2023-05-21T22:01:50.272Z,15.34
2023-05-21T22:04:17.946Z,15.29
2023-05-21T22:06:46.705Z,15.33
2023-05-21T22:09:14.460Z,15.37
2023-05-21T22:11:42.240Z,15.37
2023-05-21T22:14:11.562Z,15.33
2023-05-21T22:16:41.436Z,15.30
2023-05-21T22:19:10.168Z,15.24
2023-05-21T22:21:38.136Z,15.25
2023-05-21T22:24:06.165Z,15.21
2023-05-21T22:26:33.791Z,15.20
2023-05-21T22:29:01.567Z,15.18
2023-05-21T22:31:29.311Z,15.17
2023-05-21T22:33:58.321Z,15.17
2023-05-21T22:36:26.191Z,15.16
2023-05-21T22:38:53.806Z,15.17
2023-05-21T22:41:22.798Z,15.16
2023-05-21T22:43:50.430Z,15.14
2023-05-21T22:46:18.114Z,15.12
2023-05-21T22:48:46.092Z,15.10
2023-05-21T22:51:15.337Z,15.07
2023-05-21T22:53:43.320Z,15.05
2023-05-21T22:56:11.311Z,15.09
2023-05-21T22:58:38.951Z,15.07
2023-05-21T23:01:06.719Z,15.08
2023-05-21T23:03:34.302Z,15.08
2023-05-21T23:06:02.017Z,15.10
2023-05-21T23:08:31.074Z,15.10
2023-05-21T23:10:58.675Z,15.08
2023-05-21T23:13:26.533Z,15.09
2023-05-21T23:15:54.189Z,15.10
2023-05-21T23:18:21.825Z,15.10
2023-05-21T23:20:49.484Z,15.11
2023-05-21T23:23:17.307Z,15.08
2023-05-21T23:25:46.576Z,15.05
2023-05-21T23:28:14.219Z,15.06
2023-05-21T23:30:41.931Z,15.04
2023-05-21T23:33:09.832Z,15.03
2023-05-21T23:35:37.634Z,15.02
2023-05-21T23:38:05.416Z,15.01
2023-05-21T23:40:33.096Z,15.03
2023-05-21T23:43:02.461Z,15.00
2023-05-21T23:45:30.190Z,15.00
2023-05-21T23:47:57.878Z,15.00
2023-05-21T23:50:25.868Z,15.01
2023-05-21T23:52:53.656Z,15.03
2023-05-21T23:55:21.465Z,14.98
2023-05-21T23:57:49.101Z,15.00
